sensor_id;sensor_type;location;lat;lon;timestamp;P1;P2;P0
40569;PMS5003;26270;34.428;-119.710;2023-01-19T00:01:42;2;2;
40569;PMS5003;26270;34.428;-119.710;2023-01-19T00:04:11;1;1;
40569;PMS5003;26270;34.428;-119.710;2023-01-19T00:06:39;1;1;
40569;PMS5003;26270;34.428;-119.710;2023-01-19T00:09:06;4;2;
40569;PMS5003;26270;34.428;-119.710;2023-01-19T00:11:35;3;3;
40569;PMS5003;26270;34.428;-119.710;2023-01-19T00:14:03;3;3;
40569;PMS5003;26270;34.428;-119.710;2023-01-19T00:16:31;3;3;
40569;PMS5003;26270;34.428;-119.710;2023-01-19T00:18:59;1;1;
40569;PMS5003;26270;34.428;-119.710;2023-01-19T00:21:27;1;0;
40569;PMS5003;26270;34.428;-119.710;2023-01-19T00:23:54;2;1;
40569;PMS5003;26270;34.428;-119.710;2023-01-19T00:26:23;2;1;
40569;PMS5003;26270;34.428;-119.710;2023-01-19T00:28:51;2;1;
40569;PMS5003;26270;34.428;-119.710;2023-01-19T00:31:19;1;1;
40569;PMS5003;26270;34.428;-119.710;2023-01-19T00:33:48;1;1;
40569;PMS5003;26270;34.428;-119.710;2023-01-19T00:36:15;0;0;
40569;PMS5003;26270;34.428;-119.710;2023-01-19T00:38:43;0;0;
40569;PMS5003;26270;34.428;-119.710;2023-01-19T00:41:11;1;1;
40569;PMS5003;26270;34.428;-119.710;2023-01-19T00:43:39;3;0;
40569;PMS5003;26270;34.428;-119.710;2023-01-19T00:46:06;1;1;
40569;PMS5003;26270;34.428;-119.710;2023-01-19T00:48:35;1;1;
40569;PMS5003;26270;34.428;-119.710;2023-01-19T00:51:04;0;0;
40569;PMS5003;26270;34.428;-119.710;2023-01-19T00:53:32;1;1;
40569;PMS5003;26270;34.428;-119.710;2023-01-19T00:56:01;1;1;
40569;PMS5003;26270;34.428;-119.710;2023-01-19T00:58:29;1;1;
40569;PMS5003;26270;34.428;-119.710;2023-01-19T01:00:57;2;2;
40569;PMS5003;26270;34.428;-119.710;2023-01-19T01:03:24;1;1;
40569;PMS5003;26270;34.428;-119.710;2023-01-19T01:05:53;2;1;
40569;PMS5003;26270;34.428;-119.710;2023-01-19T01:08:21;2;1;
40569;PMS5003;26270;34.428;-119.710;2023-01-19T01:10:49;2;2;
40569;PMS5003;26270;34.428;-119.710;2023-01-19T01:13:17;1;1;
40569;PMS5003;26270;34.428;-119.710;2023-01-19T01:15:48;1;1;
40569;PMS5003;26270;34.428;-119.710;2023-01-19T01:18:16;2;1;
40569;PMS5003;26270;34.428;-119.710;2023-01-19T01:20:45;1;1;
40569;PMS5003;26270;34.428;-119.710;2023-01-19T01:23:14;1;1;
40569;PMS5003;26270;34.428;-119.710;2023-01-19T01:25:43;1;1;
40569;PMS5003;26270;34.428;-119.710;2023-01-19T01:28:11;2;1;
40569;PMS5003;26270;34.428;-119.710;2023-01-19T01:30:40;1;1;
40569;PMS5003;26270;34.428;-119.710;2023-01-19T01:33:08;2;1;
40569;PMS5003;26270;34.428;-119.710;2023-01-19T01:35:36;5;2;
40569;PMS5003;26270;34.428;-119.710;2023-01-19T01:38:05;2;1;
40569;PMS5003;26270;34.428;-119.710;2023-01-19T01:40:33;1;1;
40569;PMS5003;26270;34.428;-119.710;2023-01-19T01:43:00;1;0;
40569;PMS5003;26270;34.428;-119.710;2023-01-19T01:45:29;3;2;
40569;PMS5003;26270;34.428;-119.710;2023-01-19T01:48:01;5;5;
40569;PMS5003;26270;34.428;-119.710;2023-01-19T01:50:34;2;2;
40569;PMS5003;26270;34.428;-119.710;2023-01-19T01:53:07;3;3;
40569;PMS5003;26270;34.428;-119.710;2023-01-19T01:55:41;4;4;
40569;PMS5003;26270;34.428;-119.710;2023-01-19T01:58:12;14;11;
40569;PMS5003;26270;34.428;-119.710;2023-01-19T02:00:42;6;6;
40569;PMS5003;26270;34.428;-119.710;2023-01-19T02:03:10;6;6;
40569;PMS5003;26270;34.428;-119.710;2023-01-19T02:05:38;6;6;
40569;PMS5003;26270;34.428;-119.710;2023-01-19T02:08:09;6;6;
40569;PMS5003;26270;34.428;-119.710;2023-01-19T02:10:41;10;6;
40569;PMS5003;26270;34.428;-119.710;2023-01-19T02:13:10;5;5;
40569;PMS5003;26270;34.428;-119.710;2023-01-19T02:15:40;3;3;
40569;PMS5003;26270;34.428;-119.710;2023-01-19T02:18:09;3;3;
40569;PMS5003;26270;34.428;-119.710;2023-01-19T02:20:37;3;3;
40569;PMS5003;26270;34.428;-119.710;2023-01-19T02:23:11;4;4;
40569;PMS5003;26270;34.428;-119.710;2023-01-19T02:25:44;3;3;
40569;PMS5003;26270;34.428;-119.710;2023-01-19T02:28:14;4;3;
40569;PMS5003;26270;34.428;-119.710;2023-01-19T02:30:42;4;4;
40569;PMS5003;26270;34.428;-119.710;2023-01-19T02:33:11;4;4;
40569;PMS5003;26270;34.428;-119.710;2023-01-19T02:35:39;4;4;
40569;PMS5003;26270;34.428;-119.710;2023-01-19T02:38:08;3;3;
40569;PMS5003;26270;34.428;-119.710;2023-01-19T02:40:37;4;3;
40569;PMS5003;26270;34.428;-119.710;2023-01-19T02:43:08;3;3;
40569;PMS5003;26270;34.428;-119.710;2023-01-19T02:45:36;3;3;
40569;PMS5003;26270;34.428;-119.710;2023-01-19T02:48:05;3;3;
40569;PMS5003;26270;34.428;-119.710;2023-01-19T02:50:38;4;3;
40569;PMS5003;26270;34.428;-119.710;2023-01-19T02:53:11;3;3;
40569;PMS5003;26270;34.428;-119.710;2023-01-19T02:55:56;3;3;
40569;PMS5003;26270;34.428;-119.710;2023-01-19T02:58:29;4;2;
40569;PMS5003;26270;34.428;-119.710;2023-01-19T03:01:05;2;2;
40569;PMS5003;26270;34.428;-119.710;2023-01-19T03:03:46;4;4;
40569;PMS5003;26270;34.428;-119.710;2023-01-19T03:06:23;6;5;
40569;PMS5003;26270;34.428;-119.710;2023-01-19T03:09:03;7;5;
40569;PMS5003;26270;34.428;-119.710;2023-01-19T03:11:38;12;12;
40569;PMS5003;26270;34.428;-119.710;2023-01-19T03:14:12;18;18;
40569;PMS5003;26270;34.428;-119.710;2023-01-19T03:16:44;18;17;
40569;PMS5003;26270;34.428;-119.710;2023-01-19T03:19:18;18;17;
40569;PMS5003;26270;34.428;-119.710;2023-01-19T03:21:51;19;17;
40569;PMS5003;26270;34.428;-119.710;2023-01-19T03:24:23;13;13;
40569;PMS5003;26270;34.428;-119.710;2023-01-19T03:26:57;18;15;
40569;PMS5003;26270;34.428;-119.710;2023-01-19T03:29:31;17;17;
40569;PMS5003;26270;34.428;-119.710;2023-01-19T03:32:02;20;17;
40569;PMS5003;26270;34.428;-119.710;2023-01-19T03:34:32;17;16;
40569;PMS5003;26270;34.428;-119.710;2023-01-19T03:37:02;16;13;
40569;PMS5003;26270;34.428;-119.710;2023-01-19T03:39:33;15;13;
40569;PMS5003;26270;34.428;-119.710;2023-01-19T03:42:02;11;10;
40569;PMS5003;26270;34.428;-119.710;2023-01-19T03:44:33;8;8;
40569;PMS5003;26270;34.428;-119.710;2023-01-19T03:47:05;9;8;
40569;PMS5003;26270;34.428;-119.710;2023-01-19T03:49:37;9;9;
40569;PMS5003;26270;34.428;-119.710;2023-01-19T03:52:07;9;9;
40569;PMS5003;26270;34.428;-119.710;2023-01-19T03:54:36;10;9;
40569;PMS5003;26270;34.428;-119.710;2023-01-19T03:57:04;8;8;
40569;PMS5003;26270;34.428;-119.710;2023-01-19T03:59:32;6;6;
40569;PMS5003;26270;34.428;-119.710;2023-01-19T04:02:01;7;7;
40569;PMS5003;26270;34.428;-119.710;2023-01-19T04:04:28;9;9;
40569;PMS5003;26270;34.428;-119.710;2023-01-19T04:06:56;7;7;
40569;PMS5003;26270;34.428;-119.710;2023-01-19T04:09:24;7;7;
40569;PMS5003;26270;34.428;-119.710;2023-01-19T04:11:52;11;10;
40569;PMS5003;26270;34.428;-119.710;2023-01-19T04:14:20;8;8;
40569;PMS5003;26270;34.428;-119.710;2023-01-19T04:16:49;9;9;
40569;PMS5003;26270;34.428;-119.710;2023-01-19T04:19:16;11;9;
40569;PMS5003;26270;34.428;-119.710;2023-01-19T04:21:44;11;10;
40569;PMS5003;26270;34.428;-119.710;2023-01-19T04:24:15;11;11;
40569;PMS5003;26270;34.428;-119.710;2023-01-19T04:26:43;9;9;
40569;PMS5003;26270;34.428;-119.710;2023-01-19T04:29:12;11;11;
40569;PMS5003;26270;34.428;-119.710;2023-01-19T04:31:40;15;14;
40569;PMS5003;26270;34.428;-119.710;2023-01-19T04:34:09;16;16;
40569;PMS5003;26270;34.428;-119.710;2023-01-19T04:36:36;18;16;
40569;PMS5003;26270;34.428;-119.710;2023-01-19T04:39:04;14;14;
40569;PMS5003;26270;34.428;-119.710;2023-01-19T04:41:33;12;10;
40569;PMS5003;26270;34.428;-119.710;2023-01-19T04:44:00;8;8;
40569;PMS5003;26270;34.428;-119.710;2023-01-19T04:46:29;10;9;
40569;PMS5003;26270;34.428;-119.710;2023-01-19T04:48:56;7;7;
40569;PMS5003;26270;34.428;-119.710;2023-01-19T04:51:24;8;8;
40569;PMS5003;26270;34.428;-119.710;2023-01-19T04:53:52;7;7;
40569;PMS5003;26270;34.428;-119.710;2023-01-19T04:56:20;6;6;
40569;PMS5003;26270;34.428;-119.710;2023-01-19T04:58:48;10;8;
40569;PMS5003;26270;34.428;-119.710;2023-01-19T05:03:18;12;12;
40569;PMS5003;26270;34.428;-119.710;2023-01-19T05:05:46;15;14;
40569;PMS5003;26270;34.428;-119.710;2023-01-19T05:08:14;15;15;
40569;PMS5003;26270;34.428;-119.710;2023-01-19T05:10:42;13;13;
40569;PMS5003;26270;34.428;-119.710;2023-01-19T05:13:10;16;15;
40569;PMS5003;26270;34.428;-119.710;2023-01-19T05:15:39;14;12;
40569;PMS5003;26270;34.428;-119.710;2023-01-19T05:18:06;13;12;
40569;PMS5003;26270;34.428;-119.710;2023-01-19T05:20:35;13;12;
40569;PMS5003;26270;34.428;-119.710;2023-01-19T05:23:03;13;12;
40569;PMS5003;26270;34.428;-119.710;2023-01-19T05:25:32;10;8;
40569;PMS5003;26270;34.428;-119.710;2023-01-19T05:28:00;9;9;
40569;PMS5003;26270;34.428;-119.710;2023-01-19T05:30:28;9;9;
40569;PMS5003;26270;34.428;-119.710;2023-01-19T05:32:56;13;10;
40569;PMS5003;26270;34.428;-119.710;2023-01-19T05:35:24;9;9;
40569;PMS5003;26270;34.428;-119.710;2023-01-19T05:37:52;9;9;
40569;PMS5003;26270;34.428;-119.710;2023-01-19T05:40:19;10;10;
40569;PMS5003;26270;34.428;-119.710;2023-01-19T05:42:47;8;8;
40569;PMS5003;26270;34.428;-119.710;2023-01-19T05:45:15;9;9;
40569;PMS5003;26270;34.428;-119.710;2023-01-19T05:47:43;7;6;
40569;PMS5003;26270;34.428;-119.710;2023-01-19T05:50:10;8;7;
40569;PMS5003;26270;34.428;-119.710;2023-01-19T05:52:39;9;8;
40569;PMS5003;26270;34.428;-119.710;2023-01-19T05:55:07;6;6;
40569;PMS5003;26270;34.428;-119.710;2023-01-19T05:57:35;6;5;
40569;PMS5003;26270;34.428;-119.710;2023-01-19T06:00:03;5;5;
40569;PMS5003;26270;34.428;-119.710;2023-01-19T06:02:31;4;3;
40569;PMS5003;26270;34.428;-119.710;2023-01-19T06:04:59;6;5;
40569;PMS5003;26270;34.428;-119.710;2023-01-19T06:07:27;6;6;
40569;PMS5003;26270;34.428;-119.710;2023-01-19T06:09:56;4;4;
40569;PMS5003;26270;34.428;-119.710;2023-01-19T06:12:24;7;5;
40569;PMS5003;26270;34.428;-119.710;2023-01-19T06:14:51;5;4;
40569;PMS5003;26270;34.428;-119.710;2023-01-19T06:17:19;5;4;
40569;PMS5003;26270;34.428;-119.710;2023-01-19T06:19:47;4;4;
40569;PMS5003;26270;34.428;-119.710;2023-01-19T06:22:15;5;4;
40569;PMS5003;26270;34.428;-119.710;2023-01-19T06:24:43;7;6;
40569;PMS5003;26270;34.428;-119.710;2023-01-19T06:27:11;8;8;
40569;PMS5003;26270;34.428;-119.710;2023-01-19T06:29:39;9;8;
40569;PMS5003;26270;34.428;-119.710;2023-01-19T06:32:06;6;6;
40569;PMS5003;26270;34.428;-119.710;2023-01-19T06:34:34;4;4;
40569;PMS5003;26270;34.428;-119.710;2023-01-19T06:37:02;5;4;
40569;PMS5003;26270;34.428;-119.710;2023-01-19T06:39:29;5;4;
40569;PMS5003;26270;34.428;-119.710;2023-01-19T06:41:57;11;11;
40569;PMS5003;26270;34.428;-119.710;2023-01-19T06:44:25;18;17;
40569;PMS5003;26270;34.428;-119.710;2023-01-19T06:46:53;16;13;
40569;PMS5003;26270;34.428;-119.710;2023-01-19T06:49:22;12;12;
40569;PMS5003;26270;34.428;-119.710;2023-01-19T06:51:49;13;13;
40569;PMS5003;26270;34.428;-119.710;2023-01-19T06:54:17;12;12;
40569;PMS5003;26270;34.428;-119.710;2023-01-19T06:56:45;12;11;
40569;PMS5003;26270;34.428;-119.710;2023-01-19T06:59:13;5;5;
40569;PMS5003;26270;34.428;-119.710;2023-01-19T07:01:41;6;5;
40569;PMS5003;26270;34.428;-119.710;2023-01-19T07:04:10;9;9;
40569;PMS5003;26270;34.428;-119.710;2023-01-19T07:06:37;5;4;
40569;PMS5003;26270;34.428;-119.710;2023-01-19T07:09:05;4;4;
40569;PMS5003;26270;34.428;-119.710;2023-01-19T07:11:33;3;3;
40569;PMS5003;26270;34.428;-119.710;2023-01-19T07:14:01;3;2;
40569;PMS5003;26270;34.428;-119.710;2023-01-19T07:16:29;4;4;
40569;PMS5003;26270;34.428;-119.710;2023-01-19T07:18:58;3;3;
40569;PMS5003;26270;34.428;-119.710;2023-01-19T07:21:26;2;2;
40569;PMS5003;26270;34.428;-119.710;2023-01-19T07:23:55;3;3;
40569;PMS5003;26270;34.428;-119.710;2023-01-19T07:26:23;3;3;
40569;PMS5003;26270;34.428;-119.710;2023-01-19T07:28:51;6;6;
40569;PMS5003;26270;34.428;-119.710;2023-01-19T07:31:20;7;7;
40569;PMS5003;26270;34.428;-119.710;2023-01-19T07:33:47;6;6;
40569;PMS5003;26270;34.428;-119.710;2023-01-19T07:36:16;4;4;
40569;PMS5003;26270;34.428;-119.710;2023-01-19T07:38:45;5;5;
40569;PMS5003;26270;34.428;-119.710;2023-01-19T07:41:13;6;6;
40569;PMS5003;26270;34.428;-119.710;2023-01-19T07:43:41;6;6;
40569;PMS5003;26270;34.428;-119.710;2023-01-19T07:46:09;7;6;
40569;PMS5003;26270;34.428;-119.710;2023-01-19T07:48:37;7;7;
40569;PMS5003;26270;34.428;-119.710;2023-01-19T07:51:05;12;9;
40569;PMS5003;26270;34.428;-119.710;2023-01-19T07:53:33;7;7;
40569;PMS5003;26270;34.428;-119.710;2023-01-19T07:56:01;5;5;
40569;PMS5003;26270;34.428;-119.710;2023-01-19T07:58:30;7;7;
40569;PMS5003;26270;34.428;-119.710;2023-01-19T08:00:58;7;7;
40569;PMS5003;26270;34.428;-119.710;2023-01-19T08:03:26;7;7;
40569;PMS5003;26270;34.428;-119.710;2023-01-19T08:05:54;8;8;
40569;PMS5003;26270;34.428;-119.710;2023-01-19T08:08:21;12;12;
40569;PMS5003;26270;34.428;-119.710;2023-01-19T08:10:54;19;18;
40569;PMS5003;26270;34.428;-119.710;2023-01-19T08:13:22;23;22;
40569;PMS5003;26270;34.428;-119.710;2023-01-19T08:15:51;25;25;
40569;PMS5003;26270;34.428;-119.710;2023-01-19T08:18:20;27;27;
40569;PMS5003;26270;34.428;-119.710;2023-01-19T08:20:48;32;32;
40569;PMS5003;26270;34.428;-119.710;2023-01-19T08:23:16;18;15;
40569;PMS5003;26270;34.428;-119.710;2023-01-19T08:25:44;24;22;
40569;PMS5003;26270;34.428;-119.710;2023-01-19T08:28:13;15;14;
40569;PMS5003;26270;34.428;-119.710;2023-01-19T08:30:42;30;30;
40569;PMS5003;26270;34.428;-119.710;2023-01-19T08:33:11;47;47;
40569;PMS5003;26270;34.428;-119.710;2023-01-19T08:35:40;66;66;
40569;PMS5003;26270;34.428;-119.710;2023-01-19T08:38:12;91;91;
40569;PMS5003;26270;34.428;-119.710;2023-01-19T08:40:40;22;21;
40569;PMS5003;26270;34.428;-119.710;2023-01-19T08:43:09;93;93;
40569;PMS5003;26270;34.428;-119.710;2023-01-19T08:45:39;22;21;
40569;PMS5003;26270;34.428;-119.710;2023-01-19T08:48:09;32;30;
40569;PMS5003;26270;34.428;-119.710;2023-01-19T08:50:36;16;16;
40569;PMS5003;26270;34.428;-119.710;2023-01-19T08:53:05;16;16;
40569;PMS5003;26270;34.428;-119.710;2023-01-19T08:55:33;10;10;
40569;PMS5003;26270;34.428;-119.710;2023-01-19T08:58:02;11;11;
40569;PMS5003;26270;34.428;-119.710;2023-01-19T09:00:31;7;7;
40569;PMS5003;26270;34.428;-119.710;2023-01-19T09:03:00;3;3;
40569;PMS5003;26270;34.428;-119.710;2023-01-19T09:05:28;3;3;
40569;PMS5003;26270;34.428;-119.710;2023-01-19T09:07:57;2;2;
40569;PMS5003;26270;34.428;-119.710;2023-01-19T09:10:25;2;2;
40569;PMS5003;26270;34.428;-119.710;2023-01-19T09:12:53;3;2;
40569;PMS5003;26270;34.428;-119.710;2023-01-19T09:15:21;3;2;
40569;PMS5003;26270;34.428;-119.710;2023-01-19T09:17:50;3;3;
40569;PMS5003;26270;34.428;-119.710;2023-01-19T09:20:19;3;2;
40569;PMS5003;26270;34.428;-119.710;2023-01-19T09:22:46;3;2;
40569;PMS5003;26270;34.428;-119.710;2023-01-19T09:25:14;1;1;
40569;PMS5003;26270;34.428;-119.710;2023-01-19T09:27:42;1;1;
40569;PMS5003;26270;34.428;-119.710;2023-01-19T09:30:10;2;2;
40569;PMS5003;26270;34.428;-119.710;2023-01-19T09:32:39;2;2;
40569;PMS5003;26270;34.428;-119.710;2023-01-19T09:35:08;1;1;
40569;PMS5003;26270;34.428;-119.710;2023-01-19T09:37:36;3;3;
40569;PMS5003;26270;34.428;-119.710;2023-01-19T09:40:05;2;2;
40569;PMS5003;26270;34.428;-119.710;2023-01-19T09:42:37;2;2;
40569;PMS5003;26270;34.428;-119.710;2023-01-19T09:45:11;2;2;
40569;PMS5003;26270;34.428;-119.710;2023-01-19T09:47:44;2;2;
40569;PMS5003;26270;34.428;-119.710;2023-01-19T09:50:15;1;1;
40569;PMS5003;26270;34.428;-119.710;2023-01-19T09:52:53;2;2;
40569;PMS5003;26270;34.428;-119.710;2023-01-19T09:55:24;2;1;
40569;PMS5003;26270;34.428;-119.710;2023-01-19T09:57:53;2;2;
40569;PMS5003;26270;34.428;-119.710;2023-01-19T10:00:21;2;2;
40569;PMS5003;26270;34.428;-119.710;2023-01-19T10:02:51;1;1;
40569;PMS5003;26270;34.428;-119.710;2023-01-19T10:05:25;1;1;
40569;PMS5003;26270;34.428;-119.710;2023-01-19T10:08:00;1;1;
40569;PMS5003;26270;34.428;-119.710;2023-01-19T10:10:38;1;1;
40569;PMS5003;26270;34.428;-119.710;2023-01-19T10:13:12;1;1;
40569;PMS5003;26270;34.428;-119.710;2023-01-19T10:15:53;1;1;
40569;PMS5003;26270;34.428;-119.710;2023-01-19T10:18:28;1;1;
40569;PMS5003;26270;34.428;-119.710;2023-01-19T10:21:09;2;1;
40569;PMS5003;26270;34.428;-119.710;2023-01-19T10:23:42;1;1;
40569;PMS5003;26270;34.428;-119.710;2023-01-19T10:26:15;2;1;
40569;PMS5003;26270;34.428;-119.710;2023-01-19T10:28:46;1;1;
40569;PMS5003;26270;34.428;-119.710;2023-01-19T10:31:20;1;1;
40569;PMS5003;26270;34.428;-119.710;2023-01-19T10:33:50;0;0;
40569;PMS5003;26270;34.428;-119.710;2023-01-19T10:36:19;2;1;
40569;PMS5003;26270;34.428;-119.710;2023-01-19T10:38:50;1;1;
40569;PMS5003;26270;34.428;-119.710;2023-01-19T10:41:18;1;1;
40569;PMS5003;26270;34.428;-119.710;2023-01-19T10:43:57;1;0;
40569;PMS5003;26270;34.428;-119.710;2023-01-19T10:46:30;2;1;
40569;PMS5003;26270;34.428;-119.710;2023-01-19T10:49:20;1;1;
40569;PMS5003;26270;34.428;-119.710;2023-01-19T10:51:51;1;1;
40569;PMS5003;26270;34.428;-119.710;2023-01-19T10:54:21;1;1;
40569;PMS5003;26270;34.428;-119.710;2023-01-19T10:56:50;1;1;
40569;PMS5003;26270;34.428;-119.710;2023-01-19T10:59:30;1;1;
40569;PMS5003;26270;34.428;-119.710;2023-01-19T11:02:02;1;1;
40569;PMS5003;26270;34.428;-119.710;2023-01-19T11:04:43;2;2;
40569;PMS5003;26270;34.428;-119.710;2023-01-19T11:07:13;1;1;
40569;PMS5003;26270;34.428;-119.710;2023-01-19T11:09:45;1;1;
40569;PMS5003;26270;34.428;-119.710;2023-01-19T11:12:17;1;1;
40569;PMS5003;26270;34.428;-119.710;2023-01-19T11:14:49;1;1;
40569;PMS5003;26270;34.428;-119.710;2023-01-19T11:17:18;2;1;
40569;PMS5003;26270;34.428;-119.710;2023-01-19T11:19:54;1;1;
40569;PMS5003;26270;34.428;-119.710;2023-01-19T11:22:26;1;1;
40569;PMS5003;26270;34.428;-119.710;2023-01-19T11:24:56;1;1;
40569;PMS5003;26270;34.428;-119.710;2023-01-19T11:27:27;3;2;
40569;PMS5003;26270;34.428;-119.710;2023-01-19T11:30:00;1;1;
40569;PMS5003;26270;34.428;-119.710;2023-01-19T11:32:31;0;0;
40569;PMS5003;26270;34.428;-119.710;2023-01-19T11:34:59;1;1;
40569;PMS5003;26270;34.428;-119.710;2023-01-19T11:37:28;1;1;
40569;PMS5003;26270;34.428;-119.710;2023-01-19T11:39:58;1;1;
40569;PMS5003;26270;34.428;-119.710;2023-01-19T11:42:27;2;2;
40569;PMS5003;26270;34.428;-119.710;2023-01-19T11:45:00;2;2;
40569;PMS5003;26270;34.428;-119.710;2023-01-19T11:47:34;2;2;
40569;PMS5003;26270;34.428;-119.710;2023-01-19T11:50:11;1;1;
40569;PMS5003;26270;34.428;-119.710;2023-01-19T11:52:48;2;2;
40569;PMS5003;26270;34.428;-119.710;2023-01-19T11:55:23;2;1;
40569;PMS5003;26270;34.428;-119.710;2023-01-19T11:57:57;1;1;
40569;PMS5003;26270;34.428;-119.710;2023-01-19T12:00:26;1;1;
40569;PMS5003;26270;34.428;-119.710;2023-01-19T12:03:01;1;1;
40569;PMS5003;26270;34.428;-119.710;2023-01-19T12:05:35;3;3;
40569;PMS5003;26270;34.428;-119.710;2023-01-19T12:08:10;2;2;
40569;PMS5003;26270;34.428;-119.710;2023-01-19T12:10:43;1;1;
40569;PMS5003;26270;34.428;-119.710;2023-01-19T12:13:16;1;0;
40569;PMS5003;26270;34.428;-119.710;2023-01-19T12:15:48;0;0;
40569;PMS5003;26270;34.428;-119.710;2023-01-19T12:18:21;0;0;
40569;PMS5003;26270;34.428;-119.710;2023-01-19T12:20:52;0;0;
40569;PMS5003;26270;34.428;-119.710;2023-01-19T12:23:24;0;0;
40569;PMS5003;26270;34.428;-119.710;2023-01-19T12:26:02;1;1;
40569;PMS5003;26270;34.428;-119.710;2023-01-19T12:28:45;1;1;
40569;PMS5003;26270;34.428;-119.710;2023-01-19T12:31:15;0;0;
40569;PMS5003;26270;34.428;-119.710;2023-01-19T12:33:44;1;1;
40569;PMS5003;26270;34.428;-119.710;2023-01-19T12:36:33;0;0;
40569;PMS5003;26270;34.428;-119.710;2023-01-19T12:39:03;0;0;
40569;PMS5003;26270;34.428;-119.710;2023-01-19T12:41:39;0;0;
40569;PMS5003;26270;34.428;-119.710;2023-01-19T12:44:20;1;0;
40569;PMS5003;26270;34.428;-119.710;2023-01-19T12:46:54;1;1;
40569;PMS5003;26270;34.428;-119.710;2023-01-19T12:49:25;2;1;
40569;PMS5003;26270;34.428;-119.710;2023-01-19T12:52:09;1;0;
40569;PMS5003;26270;34.428;-119.710;2023-01-19T12:54:48;1;1;
40569;PMS5003;26270;34.428;-119.710;2023-01-19T12:57:21;1;1;
40569;PMS5003;26270;34.428;-119.710;2023-01-19T12:59:54;1;1;
40569;PMS5003;26270;34.428;-119.710;2023-01-19T13:02:40;0;0;
40569;PMS5003;26270;34.428;-119.710;2023-01-19T13:05:13;1;1;
40569;PMS5003;26270;34.428;-119.710;2023-01-19T13:09:55;1;0;
40569;PMS5003;26270;34.428;-119.710;2023-01-19T13:12:23;1;1;
40569;PMS5003;26270;34.428;-119.710;2023-01-19T13:15:24;1;1;
40569;PMS5003;26270;34.428;-119.710;2023-01-19T13:17:59;1;1;
40569;PMS5003;26270;34.428;-119.710;2023-01-19T13:20:30;1;1;
40569;PMS5003;26270;34.428;-119.710;2023-01-19T13:23:15;2;2;
40569;PMS5003;26270;34.428;-119.710;2023-01-19T13:25:48;1;1;
40569;PMS5003;26270;34.428;-119.710;2023-01-19T13:28:21;1;1;
40569;PMS5003;26270;34.428;-119.710;2023-01-19T13:30:57;0;0;
40569;PMS5003;26270;34.428;-119.710;2023-01-19T13:33:28;1;1;
40569;PMS5003;26270;34.428;-119.710;2023-01-19T13:36:03;1;1;
40569;PMS5003;26270;34.428;-119.710;2023-01-19T13:38:40;1;1;
40569;PMS5003;26270;34.428;-119.710;2023-01-19T13:41:09;1;1;
40569;PMS5003;26270;34.428;-119.710;2023-01-19T13:43:42;2;1;
40569;PMS5003;26270;34.428;-119.710;2023-01-19T13:46:10;1;1;
40569;PMS5003;26270;34.428;-119.710;2023-01-19T13:48:40;1;1;
40569;PMS5003;26270;34.428;-119.710;2023-01-19T13:51:20;1;0;
40569;PMS5003;26270;34.428;-119.710;2023-01-19T13:53:56;1;1;
40569;PMS5003;26270;34.428;-119.710;2023-01-19T13:56:25;0;0;
40569;PMS5003;26270;34.428;-119.710;2023-01-19T13:59:00;2;1;
40569;PMS5003;26270;34.428;-119.710;2023-01-19T14:01:33;2;1;
40569;PMS5003;26270;34.428;-119.710;2023-01-19T14:04:03;1;1;
40569;PMS5003;26270;34.428;-119.710;2023-01-19T14:06:32;2;2;
40569;PMS5003;26270;34.428;-119.710;2023-01-19T14:09:05;1;1;
40569;PMS5003;26270;34.428;-119.710;2023-01-19T14:11:38;2;1;
40569;PMS5003;26270;34.428;-119.710;2023-01-19T14:14:20;1;1;
40569;PMS5003;26270;34.428;-119.710;2023-01-19T14:16:49;2;2;
40569;PMS5003;26270;34.428;-119.710;2023-01-19T14:19:17;1;1;
40569;PMS5003;26270;34.428;-119.710;2023-01-19T14:21:45;3;1;
40569;PMS5003;26270;34.428;-119.710;2023-01-19T14:24:23;2;1;
40569;PMS5003;26270;34.428;-119.710;2023-01-19T14:26:51;1;1;
40569;PMS5003;26270;34.428;-119.710;2023-01-19T14:29:23;2;1;
40569;PMS5003;26270;34.428;-119.710;2023-01-19T14:32:04;2;2;
40569;PMS5003;26270;34.428;-119.710;2023-01-19T14:34:39;3;2;
40569;PMS5003;26270;34.428;-119.710;2023-01-19T14:37:17;1;1;
40569;PMS5003;26270;34.428;-119.710;2023-01-19T14:39:50;3;3;
40569;PMS5003;26270;34.428;-119.710;2023-01-19T14:42:23;3;3;
40569;PMS5003;26270;34.428;-119.710;2023-01-19T14:44:55;2;2;
40569;PMS5003;26270;34.428;-119.710;2023-01-19T14:47:27;1;1;
40569;PMS5003;26270;34.428;-119.710;2023-01-19T14:50:01;4;3;
40569;PMS5003;26270;34.428;-119.710;2023-01-19T14:52:34;2;2;
40569;PMS5003;26270;34.428;-119.710;2023-01-19T14:55:07;3;3;
40569;PMS5003;26270;34.428;-119.710;2023-01-19T14:57:46;2;2;
40569;PMS5003;26270;34.428;-119.710;2023-01-19T15:00:15;2;2;
40569;PMS5003;26270;34.428;-119.710;2023-01-19T15:02:44;2;2;
40569;PMS5003;26270;34.428;-119.710;2023-01-19T15:05:13;3;2;
40569;PMS5003;26270;34.428;-119.710;2023-01-19T15:07:42;2;1;
40569;PMS5003;26270;34.428;-119.710;2023-01-19T15:10:14;4;3;
40569;PMS5003;26270;34.428;-119.710;2023-01-19T15:12:44;2;2;
40569;PMS5003;26270;34.428;-119.710;2023-01-19T15:15:14;2;1;
40569;PMS5003;26270;34.428;-119.710;2023-01-19T15:17:45;3;3;
40569;PMS5003;26270;34.428;-119.710;2023-01-19T15:20:15;3;2;
40569;PMS5003;26270;34.428;-119.710;2023-01-19T15:22:45;2;1;
40569;PMS5003;26270;34.428;-119.710;2023-01-19T15:25:15;2;1;
40569;PMS5003;26270;34.428;-119.710;2023-01-19T15:27:45;3;2;
40569;PMS5003;26270;34.428;-119.710;2023-01-19T15:30:16;2;1;
40569;PMS5003;26270;34.428;-119.710;2023-01-19T15:32:46;2;2;
40569;PMS5003;26270;34.428;-119.710;2023-01-19T15:35:15;2;2;
40569;PMS5003;26270;34.428;-119.710;2023-01-19T15:37:45;2;2;
40569;PMS5003;26270;34.428;-119.710;2023-01-19T15:40:15;1;1;
40569;PMS5003;26270;34.428;-119.710;2023-01-19T15:42:44;2;2;
40569;PMS5003;26270;34.428;-119.710;2023-01-19T15:45:45;2;2;
40569;PMS5003;26270;34.428;-119.710;2023-01-19T15:48:17;3;2;
40569;PMS5003;26270;34.428;-119.710;2023-01-19T15:50:45;3;3;
40569;PMS5003;26270;34.428;-119.710;2023-01-19T15:53:13;2;2;
40569;PMS5003;26270;34.428;-119.710;2023-01-19T15:55:47;3;3;
40569;PMS5003;26270;34.428;-119.710;2023-01-19T15:58:16;15;15;
40569;PMS5003;26270;34.428;-119.710;2023-01-19T16:00:45;18;15;
40569;PMS5003;26270;34.428;-119.710;2023-01-19T16:03:19;43;43;
40569;PMS5003;26270;34.428;-119.710;2023-01-19T16:05:48;30;30;
40569;PMS5003;26270;34.428;-119.710;2023-01-19T16:08:16;12;9;
40569;PMS5003;26270;34.428;-119.710;2023-01-19T16:10:44;3;2;
40569;PMS5003;26270;34.428;-119.710;2023-01-19T16:13:12;6;3;
40569;PMS5003;26270;34.428;-119.710;2023-01-19T16:15:40;1;1;
40569;PMS5003;26270;34.428;-119.710;2023-01-19T16:18:08;3;2;
40569;PMS5003;26270;34.428;-119.710;2023-01-19T16:20:37;1;1;
40569;PMS5003;26270;34.428;-119.710;2023-01-19T16:23:05;1;1;